sensor_id;sensor_type;location;lat;lon;timestamp;pressure;altitude;pressure_sealevel;temperature;humidity
67931;BME280;63902;52.000;5.954;2023-01-29T00:00:35;102605.31;;;0.33;98.11
67931;BME280;63902;52.000;5.954;2023-01-29T00:01:36;102613.25;;;0.36;98.16
67931;BME280;63902;52.000;5.954;2023-01-29T00:02:36;102607.13;;;0.35;98.32
67931;BME280;63902;52.000;5.954;2023-01-29T00:03:37;102614.97;;;0.35;98.51
67931;BME280;63902;52.000;5.954;2023-01-29T00:04:37;102608.88;;;0.35;98.05
67931;BME280;63902;52.000;5.954;2023-01-29T00:05:38;102610.59;;;0.34;98.17
67931;BME280;63902;52.000;5.954;2023-01-29T00:06:38;102595.66;;;0.29;98.37
67931;BME280;63902;52.000;5.954;2023-01-29T00:07:39;102608.88;;;0.35;98.10
67931;BME280;63902;52.000;5.954;2023-01-29T00:08:39;102605.31;;;0.33;98.21
67931;BME280;63902;52.000;5.954;2023-01-29T00:09:40;102600.94;;;0.32;98.21
67931;BME280;63902;52.000;5.954;2023-01-29T00:10:40;102605.31;;;0.33;98.11
67931;BME280;63902;52.000;5.954;2023-01-29T00:11:42;102608.00;;;0.34;98.39
67931;BME280;63902;52.000;5.954;2023-01-29T00:12:42;102606.16;;;0.32;98.44
67931;BME280;63902;52.000;5.954;2023-01-29T00:13:43;102610.59;;;0.34;98.35
67931;BME280;63902;52.000;5.954;2023-01-29T00:14:43;102596.59;;;0.32;98.34
67931;BME280;63902;52.000;5.954;2023-01-29T00:15:52;102605.31;;;0.33;98.17
67931;BME280;63902;52.000;5.954;2023-01-29T00:16:52;102594.78;;;0.30;98.25
67931;BME280;63902;52.000;5.954;2023-01-29T00:17:53;102606.25;;;0.35;98.25
67931;BME280;63902;52.000;5.954;2023-01-29T00:18:53;102613.22;;;0.34;98.25
67931;BME280;63902;52.000;5.954;2023-01-29T00:19:54;102610.63;;;0.36;98.17
67931;BME280;63902;52.000;5.954;2023-01-29T00:20:54;102605.31;;;0.33;98.22
67931;BME280;63902;52.000;5.954;2023-01-29T00:21:55;102612.34;;;0.35;98.23
67931;BME280;63902;52.000;5.954;2023-01-29T00:22:55;102605.38;;;0.34;98.34
67931;BME280;63902;52.000;5.954;2023-01-29T00:23:56;102611.47;;;0.35;98.37
67931;BME280;63902;52.000;5.954;2023-01-29T00:24:57;102608.00;;;0.34;98.29
67931;BME280;63902;52.000;5.954;2023-01-29T00:25:58;102594.88;;;0.33;98.47
67931;BME280;63902;52.000;5.954;2023-01-29T00:27:00;102600.09;;;0.33;98.24
67931;BME280;63902;52.000;5.954;2023-01-29T00:28:00;102597.47;;;0.31;98.40
67931;BME280;63902;52.000;5.954;2023-01-29T00:29:01;102588.69;;;0.29;98.15
67931;BME280;63902;52.000;5.954;2023-01-29T00:30:02;102599.22;;;0.32;98.50
67931;BME280;63902;52.000;5.954;2023-01-29T00:31:06;102590.50;;;0.32;98.35
67931;BME280;63902;52.000;5.954;2023-01-29T00:32:07;102584.44;;;0.33;98.23
67931;BME280;63902;52.000;5.954;2023-01-29T00:33:07;102589.66;;;0.33;98.53
67931;BME280;63902;52.000;5.954;2023-01-29T00:34:08;102588.78;;;0.32;98.14
67931;BME280;63902;52.000;5.954;2023-01-29T00:35:09;102589.66;;;0.33;98.10
67931;BME280;63902;52.000;5.954;2023-01-29T00:36:12;102585.28;;;0.32;98.51
67931;BME280;63902;52.000;5.954;2023-01-29T00:37:12;102580.00;;;0.30;98.50
67931;BME280;63902;52.000;5.954;2023-01-29T00:38:13;102573.97;;;0.31;98.58
67931;BME280;63902;52.000;5.954;2023-01-29T00:39:13;102584.41;;;0.31;98.21
67931;BME280;63902;52.000;5.954;2023-01-29T00:40:14;102569.53;;;0.29;98.52
67931;BME280;63902;52.000;5.954;2023-01-29T00:41:15;102581.81;;;0.31;98.46
67931;BME280;63902;52.000;5.954;2023-01-29T00:42:17;102577.47;;;0.32;98.51
67931;BME280;63902;52.000;5.954;2023-01-29T00:43:20;102571.38;;;0.31;98.41
67931;BME280;63902;52.000;5.954;2023-01-29T00:44:21;102564.34;;;0.30;98.33
67931;BME280;63902;52.000;5.954;2023-01-29T00:45:21;102565.16;;;0.28;98.25
67931;BME280;63902;52.000;5.954;2023-01-29T00:46:22;102573.91;;;0.30;98.43
67931;BME280;63902;52.000;5.954;2023-01-29T00:47:22;102573.91;;;0.30;98.29
67931;BME280;63902;52.000;5.954;2023-01-29T00:48:23;102563.47;;;0.30;98.53
67931;BME280;63902;52.000;5.954;2023-01-29T00:49:23;102555.56;;;0.27;98.58
67931;BME280;63902;52.000;5.954;2023-01-29T00:50:24;102563.47;;;0.30;98.46
67931;BME280;63902;52.000;5.954;2023-01-29T00:51:24;102558.25;;;0.30;98.33
67931;BME280;63902;52.000;5.954;2023-01-29T00:52:25;102557.38;;;0.29;98.40
67931;BME280;63902;52.000;5.954;2023-01-29T00:53:25;102554.75;;;0.29;98.55
67931;BME280;63902;52.000;5.954;2023-01-29T00:54:26;102552.06;;;0.26;98.68
67931;BME280;63902;52.000;5.954;2023-01-29T00:55:26;102560.00;;;0.31;98.23
67931;BME280;63902;52.000;5.954;2023-01-29T00:56:28;102563.47;;;0.30;98.67
67931;BME280;63902;52.000;5.954;2023-01-29T00:57:31;102558.25;;;0.30;98.42
67931;BME280;63902;52.000;5.954;2023-01-29T00:58:32;102563.47;;;0.30;98.76
67931;BME280;63902;52.000;5.954;2023-01-29T00:59:33;102556.41;;;0.26;98.44
67931;BME280;63902;52.000;5.954;2023-01-29T01:00:33;102561.63;;;0.26;98.74
67931;BME280;63902;52.000;5.954;2023-01-29T01:01:33;102572.97;;;0.28;98.40
67931;BME280;63902;52.000;5.954;2023-01-29T01:02:34;102577.38;;;0.29;98.79
67931;BME280;63902;52.000;5.954;2023-01-29T01:03:34;102578.19;;;0.28;98.40
67931;BME280;63902;52.000;5.954;2023-01-29T01:04:35;102578.19;;;0.28;98.31
67931;BME280;63902;52.000;5.954;2023-01-29T01:05:35;102570.38;;;0.28;98.78
67931;BME280;63902;52.000;5.954;2023-01-29T01:06:36;102572.16;;;0.29;98.49
67931;BME280;63902;52.000;5.954;2023-01-29T01:07:37;102573.91;;;0.30;98.37
67931;BME280;63902;52.000;5.954;2023-01-29T01:08:37;102579.97;;;0.29;98.76
67931;BME280;63902;52.000;5.954;2023-01-29T01:09:38;102576.50;;;0.28;98.96
67931;BME280;63902;52.000;5.954;2023-01-29T01:10:38;102571.28;;;0.28;98.74
67931;BME280;63902;52.000;5.954;2023-01-29T01:11:39;102572.97;;;0.28;98.48
67931;BME280;63902;52.000;5.954;2023-01-29T01:12:40;102570.34;;;0.26;98.45
67931;BME280;63902;52.000;5.954;2023-01-29T01:13:41;102577.31;;;0.27;98.73
67931;BME280;63902;52.000;5.954;2023-01-29T01:14:42;102570.28;;;0.25;98.80
67931;BME280;63902;52.000;5.954;2023-01-29T01:15:42;102574.69;;;0.26;98.70
67931;BME280;63902;52.000;5.954;2023-01-29T01:16:43;102581.66;;;0.27;98.72
67931;BME280;63902;52.000;5.954;2023-01-29T01:17:44;102573.75;;;0.25;98.75
67931;BME280;63902;52.000;5.954;2023-01-29T01:18:45;102572.06;;;0.26;98.76
67931;BME280;63902;52.000;5.954;2023-01-29T01:19:46;102573.88;;;0.28;98.84
67931;BME280;63902;52.000;5.954;2023-01-29T01:20:47;102579.97;;;0.29;98.59
67931;BME280;63902;52.000;5.954;2023-01-29T01:21:47;102573.81;;;0.27;98.63
67931;BME280;63902;52.000;5.954;2023-01-29T01:22:48;102568.59;;;0.27;98.59
67931;BME280;63902;52.000;5.954;2023-01-29T01:23:49;102572.16;;;0.29;98.58
67931;BME280;63902;52.000;5.954;2023-01-29T01:24:49;102559.84;;;0.25;98.68
67931;BME280;63902;52.000;5.954;2023-01-29T01:25:50;102565.94;;;0.25;98.73
67931;BME280;63902;52.000;5.954;2023-01-29T01:26:50;102563.38;;;0.27;98.68
67931;BME280;63902;52.000;5.954;2023-01-29T01:27:53;102558.16;;;0.27;98.94
67931;BME280;63902;52.000;5.954;2023-01-29T01:28:54;102549.41;;;0.25;98.66
67931;BME280;63902;52.000;5.954;2023-01-29T01:29:54;102553.81;;;0.27;98.64
67931;BME280;63902;52.000;5.954;2023-01-29T01:30:55;102559.03;;;0.27;98.51
67931;BME280;63902;52.000;5.954;2023-01-29T01:31:55;102553.81;;;0.26;98.64
67931;BME280;63902;52.000;5.954;2023-01-29T01:32:56;102559.84;;;0.25;98.90
67931;BME280;63902;52.000;5.954;2023-01-29T01:33:56;102563.38;;;0.27;99.11
67931;BME280;63902;52.000;5.954;2023-01-29T01:34:57;102558.16;;;0.27;98.88
67931;BME280;63902;52.000;5.954;2023-01-29T01:36:00;102561.66;;;0.27;98.68
67931;BME280;63902;52.000;5.954;2023-01-29T01:37:00;102564.25;;;0.27;98.68
67931;BME280;63902;52.000;5.954;2023-01-29T01:38:01;102560.78;;;0.27;98.70
67931;BME280;63902;52.000;5.954;2023-01-29T01:39:01;102556.41;;;0.26;99.01
67931;BME280;63902;52.000;5.954;2023-01-29T01:40:03;102561.63;;;0.26;99.04
67931;BME280;63902;52.000;5.954;2023-01-29T01:41:04;102561.47;;;0.21;98.96
67931;BME280;63902;52.000;5.954;2023-01-29T01:42:05;102558.09;;;0.24;98.86
67931;BME280;63902;52.000;5.954;2023-01-29T01:43:09;102558.97;;;0.24;98.99
67931;BME280;63902;52.000;5.954;2023-01-29T01:45:44;102552.78;;;0.20;99.37
67931;BME280;63902;52.000;5.954;2023-01-29T01:46:44;102553.66;;;0.21;98.83
67931;BME280;63902;52.000;5.954;2023-01-29T01:47:46;102564.97;;;0.21;99.04
67931;BME280;63902;52.000;5.954;2023-01-29T01:48:50;102557.16;;;0.21;98.77
67931;BME280;63902;52.000;5.954;2023-01-29T01:49:54;102558.94;;;0.22;99.16
67931;BME280;63902;52.000;5.954;2023-01-29T01:50:59;102543.13;;;0.18;98.71
67931;BME280;63902;52.000;5.954;2023-01-29T01:52:02;102550.19;;;0.22;99.02
67931;BME280;63902;52.000;5.954;2023-01-29T01:53:06;102556.31;;;0.22;99.10
67931;BME280;63902;52.000;5.954;2023-01-29T01:54:09;102551.03;;;0.21;99.09
67931;BME280;63902;52.000;5.954;2023-01-29T01:55:13;102555.38;;;0.20;99.13
67931;BME280;63902;52.000;5.954;2023-01-29T01:56:19;102552.69;;;0.17;99.04
67931;BME280;63902;52.000;5.954;2023-01-29T01:57:23;102557.81;;;0.14;99.12
67931;BME280;63902;52.000;5.954;2023-01-29T01:58:28;102562.28;;;0.18;99.08
67931;BME280;63902;52.000;5.954;2023-01-29T01:59:31;102567.47;;;0.17;98.99
67931;BME280;63902;52.000;5.954;2023-01-29T02:00:33;102575.31;;;0.18;99.03
67931;BME280;63902;52.000;5.954;2023-01-29T02:01:33;102575.22;;;0.15;99.28
67931;BME280;63902;52.000;5.954;2023-01-29T02:02:34;102575.16;;;0.14;99.57
67931;BME280;63902;52.000;5.954;2023-01-29T02:03:39;102574.28;;;0.13;99.23
67931;BME280;63902;52.000;5.954;2023-01-29T02:04:44;102577.69;;;0.11;99.37
67931;BME280;63902;52.000;5.954;2023-01-29T02:05:45;102570.63;;;0.07;99.43
67931;BME280;63902;52.000;5.954;2023-01-29T02:06:47;102574.19;;;0.09;99.42
67931;BME280;63902;52.000;5.954;2023-01-29T02:07:48;102572.25;;;0.03;99.48
67931;BME280;63902;52.000;5.954;2023-01-29T02:08:53;102573.22;;;0.07;99.13
67931;BME280;63902;52.000;5.954;2023-01-29T02:09:59;102575.84;;;0.07;99.29
67931;BME280;63902;52.000;5.954;2023-01-29T02:11:01;102573.97;;;0.03;99.22
67931;BME280;63902;52.000;5.954;2023-01-29T02:12:03;102567.88;;;0.02;99.47
67931;BME280;63902;52.000;5.954;2023-01-29T02:13:05;102565.22;;;0.01;99.22
67931;BME280;63902;52.000;5.954;2023-01-29T02:14:07;102569.56;;;0.00;99.05
67931;BME280;63902;52.000;5.954;2023-01-29T02:15:09;102563.44;;;-0.01;99.25
67931;BME280;63902;52.000;5.954;2023-01-29T02:16:09;102574.78;;;0.00;99.35
67931;BME280;63902;52.000;5.954;2023-01-29T02:17:11;102568.63;;;-0.02;99.41
67931;BME280;63902;52.000;5.954;2023-01-29T02:18:12;102572.19;;;0.00;99.14
67931;BME280;63902;52.000;5.954;2023-01-29T02:19:18;102565.97;;;-0.04;99.23
67931;BME280;63902;52.000;5.954;2023-01-29T02:20:23;102570.34;;;-0.03;99.40
67931;BME280;63902;52.000;5.954;2023-01-29T02:21:59;102565.16;;;-0.01;99.34
67931;BME280;63902;52.000;5.954;2023-01-29T02:23:23;102567.75;;;-0.03;99.41
67931;BME280;63902;52.000;5.954;2023-01-29T02:24:46;102569.34;;;-0.06;99.35
67931;BME280;63902;52.000;5.954;2023-01-29T02:26:03;102574.66;;;-0.03;99.39
67931;BME280;63902;52.000;5.954;2023-01-29T02:27:11;102575.50;;;-0.04;99.16
67931;BME280;63902;52.000;5.954;2023-01-29T02:28:37;102571.97;;;-0.06;99.37
67931;BME280;63902;52.000;5.954;2023-01-29T02:29:49;102567.53;;;-0.09;99.30
67931;BME280;63902;52.000;5.954;2023-01-29T02:30:58;102564.00;;;-0.11;99.26
67931;BME280;63902;52.000;5.954;2023-01-29T02:32:12;102564.13;;;-0.06;99.00
67931;BME280;63902;52.000;5.954;2023-01-29T02:33:20;102562.47;;;-0.04;99.08
67931;BME280;63902;52.000;5.954;2023-01-29T02:34:34;102561.59;;;-0.05;99.04
67931;BME280;63902;52.000;5.954;2023-01-29T02:35:41;102559.81;;;-0.06;99.16
67931;BME280;63902;52.000;5.954;2023-01-29T02:36:46;102571.97;;;-0.06;99.29
67931;BME280;63902;52.000;5.954;2023-01-29T02:37:54;102564.13;;;-0.06;99.29
67931;BME280;63902;52.000;5.954;2023-01-29T02:39:00;102563.31;;;-0.05;99.30
67931;BME280;63902;52.000;5.954;2023-01-29T02:40:11;102553.69;;;-0.08;99.00
67931;BME280;63902;52.000;5.954;2023-01-29T02:41:15;102556.31;;;-0.06;99.13
67931;BME280;63902;52.000;5.954;2023-01-29T02:42:23;102555.41;;;-0.08;99.21
67931;BME280;63902;52.000;5.954;2023-01-29T02:43:29;102558.03;;;-0.07;98.96
67931;BME280;63902;52.000;5.954;2023-01-29T02:44:37;102560.72;;;-0.05;99.27
67931;BME280;63902;52.000;5.954;2023-01-29T02:45:45;102563.31;;;-0.05;99.08
67931;BME280;63902;52.000;5.954;2023-01-29T02:46:52;102562.41;;;-0.06;98.88
67931;BME280;63902;52.000;5.954;2023-01-29T02:47:57;102572.81;;;-0.07;99.28
67931;BME280;63902;52.000;5.954;2023-01-29T02:49:04;102564.84;;;-0.12;99.21
67931;BME280;63902;52.000;5.954;2023-01-29T02:50:13;102569.25;;;-0.09;99.22
67931;BME280;63902;52.000;5.954;2023-01-29T02:51:17;102576.28;;;-0.08;99.25
67931;BME280;63902;52.000;5.954;2023-01-29T02:52:24;102571.94;;;-0.08;99.01
67931;BME280;63902;52.000;5.954;2023-01-29T02:53:31;102577.16;;;-0.08;99.01
67931;BME280;63902;52.000;5.954;2023-01-29T02:54:40;102580.56;;;-0.09;99.11
67931;BME280;63902;52.000;5.954;2023-01-29T02:55:47;102577.97;;;-0.09;99.11
67931;BME280;63902;52.000;5.954;2023-01-29T02:56:53;102577.09;;;-0.09;98.95
67931;BME280;63902;52.000;5.954;2023-01-29T02:57:59;102581.34;;;-0.11;99.25
67931;BME280;63902;52.000;5.954;2023-01-29T02:59:07;102582.31;;;-0.09;99.33
67931;BME280;63902;52.000;5.954;2023-01-29T03:00:12;102583.16;;;-0.10;99.02
67931;BME280;63902;52.000;5.954;2023-01-29T03:01:17;102575.34;;;-0.09;99.39
67931;BME280;63902;52.000;5.954;2023-01-29T03:02:25;102579.59;;;-0.12;99.30
67931;BME280;63902;52.000;5.954;2023-01-29T03:03:31;102581.44;;;-0.10;99.11
67931;BME280;63902;52.000;5.954;2023-01-29T03:04:37;102582.31;;;-0.09;99.40
67931;BME280;63902;52.000;5.954;2023-01-29T03:05:47;102584.91;;;-0.09;99.30
67931;BME280;63902;52.000;5.954;2023-01-29T03:06:52;102581.44;;;-0.10;99.20
67931;BME280;63902;52.000;5.954;2023-01-29T03:07:59;102582.28;;;-0.11;99.35
67931;BME280;63902;52.000;5.954;2023-01-29T03:09:04;102576.91;;;-0.15;99.59
67931;BME280;63902;52.000;5.954;2023-01-29T03:10:12;102579.66;;;-0.11;99.23
67931;BME280;63902;52.000;5.954;2023-01-29T03:11:16;102576.06;;;-0.14;99.44
67931;BME280;63902;52.000;5.954;2023-01-29T03:12:21;102583.06;;;-0.13;99.43
67931;BME280;63902;52.000;5.954;2023-01-29T03:13:29;102586.56;;;-0.13;99.52
67931;BME280;63902;52.000;5.954;2023-01-29T03:14:36;102579.56;;;-0.14;99.11
67931;BME280;63902;52.000;5.954;2023-01-29T03:15:43;102583.16;;;-0.10;99.25
67931;BME280;63902;52.000;5.954;2023-01-29T03:16:48;102584.03;;;-0.10;99.25
67931;BME280;63902;52.000;5.954;2023-01-29T03:17:53;102572.53;;;-0.16;99.08
67931;BME280;63902;52.000;5.954;2023-01-29T03:18:57;102577.06;;;-0.11;99.11
67931;BME280;63902;52.000;5.954;2023-01-29T03:20:01;102579.66;;;-0.11;99.14
67931;BME280;63902;52.000;5.954;2023-01-29T03:21:05;102579.69;;;-0.09;99.11
67931;BME280;63902;52.000;5.954;2023-01-29T03:22:09;102563.97;;;-0.12;99.03
67931;BME280;63902;52.000;5.954;2023-01-29T03:23:13;102565.78;;;-0.10;99.27
67931;BME280;63902;52.000;5.954;2023-01-29T03:24:19;102553.59;;;-0.11;99.33
67931;BME280;63902;52.000;5.954;2023-01-29T03:25:23;102558.00;;;-0.08;99.53
67931;BME280;63902;52.000;5.954;2023-01-29T03:26:26;102555.41;;;-0.08;99.02
67931;BME280;63902;52.000;5.954;2023-01-29T03:27:30;102559.78;;;-0.07;99.30
67931;BME280;63902;52.000;5.954;2023-01-29T03:28:32;102547.59;;;-0.08;98.79
67931;BME280;63902;52.000;5.954;2023-01-29T03:29:33;102544.91;;;-0.10;99.33
67931;BME280;63902;52.000;5.954;2023-01-29T03:30:39;102552.78;;;-0.08;99.42
67931;BME280;63902;52.000;5.954;2023-01-29T03:31:42;102548.41;;;-0.09;99.31
67931;BME280;63902;52.000;5.954;2023-01-29T03:32:45;102541.44;;;-0.10;99.38
67931;BME280;63902;52.000;5.954;2023-01-29T03:33:50;102543.19;;;-0.09;99.42
67931;BME280;63902;52.000;5.954;2023-01-29T03:34:57;102543.19;;;-0.09;99.31
67931;BME280;63902;52.000;5.954;2023-01-29T03:36:03;102545.78;;;-0.09;99.23
67931;BME280;63902;52.000;5.954;2023-01-29T03:37:08;102540.56;;;-0.09;99.48
67931;BME280;63902;52.000;5.954;2023-01-29T03:38:10;102532.75;;;-0.09;99.40
67931;BME280;63902;52.000;5.954;2023-01-29T03:39:12;102537.16;;;-0.08;99.48
67931;BME280;63902;52.000;5.954;2023-01-29T03:40:14;102530.13;;;-0.11;99.37
67931;BME280;63902;52.000;5.954;2023-01-29T03:41:22;102528.41;;;-0.09;99.52
67931;BME280;63902;52.000;5.954;2023-01-29T03:42:28;102520.56;;;-0.10;99.45
67931;BME280;63902;52.000;5.954;2023-01-29T03:43:38;102525.78;;;-0.10;99.48
67931;BME280;63902;52.000;5.954;2023-01-29T03:44:49;102521.38;;;-0.11;99.34
67931;BME280;63902;52.000;5.954;2023-01-29T03:45:59;102524.75;;;-0.15;99.34
67931;BME280;63902;52.000;5.954;2023-01-29T03:47:11;102528.22;;;-0.15;99.34
67931;BME280;63902;52.000;5.954;2023-01-29T03:48:19;102522.13;;;-0.15;99.53
67931;BME280;63902;52.000;5.954;2023-01-29T03:49:29;102520.31;;;-0.18;99.59
67931;BME280;63902;52.000;5.954;2023-01-29T03:50:37;102517.72;;;-0.18;99.40
67931;BME280;63902;52.000;5.954;2023-01-29T03:51:51;102514.25;;;-0.17;99.57
67931;BME280;63902;52.000;5.954;2023-01-29T03:52:59;102512.56;;;-0.16;99.73
67931;BME280;63902;52.000;5.954;2023-01-29T03:54:06;102505.53;;;-0.19;99.70
67931;BME280;63902;52.000;5.954;2023-01-29T03:55:13;102509.88;;;-0.18;99.48
67931;BME280;63902;52.000;5.954;2023-01-29T03:56:24;102509.09;;;-0.15;99.42
67931;BME280;63902;52.000;5.954;2023-01-29T03:57:32;102509.09;;;-0.15;99.47
67931;BME280;63902;52.000;5.954;2023-01-29T03:58:37;102514.31;;;-0.15;99.67
67931;BME280;63902;52.000;5.954;2023-01-29T03:59:47;102511.63;;;-0.18;99.44
67931;BME280;63902;52.000;5.954;2023-01-29T04:00:53;102520.38;;;-0.16;99.47
67931;BME280;63902;52.000;5.954;2023-01-29T04:01:58;102515.16;;;-0.16;99.20
67931;BME280;63902;52.000;5.954;2023-01-29T04:03:06;102508.16;;;-0.17;99.42
67931;BME280;63902;52.000;5.954;2023-01-29T04:04:13;102507.34;;;-0.16;99.75
67931;BME280;63902;52.000;5.954;2023-01-29T04:05:17;102504.72;;;-0.16;99.54
67931;BME280;63902;52.000;5.954;2023-01-29T04:06:21;102501.19;;;-0.18;99.60
67931;BME280;63902;52.000;5.954;2023-01-29T04:07:23;102496.75;;;-0.21;99.52
67931;BME280;63902;52.000;5.954;2023-01-29T04:08:26;102509.16;;;-0.14;99.50
67931;BME280;63902;52.000;5.954;2023-01-29T04:09:30;102513.53;;;-0.13;99.40
67931;BME280;63902;52.000;5.954;2023-01-29T04:10:33;102526.56;;;-0.13;99.39
67931;BME280;63902;52.000;5.954;2023-01-29T04:11:38;102520.47;;;-0.13;99.51
67931;BME280;63902;52.000;5.954;2023-01-29T04:12:44;102523.91;;;-0.14;99.32
67931;BME280;63902;52.000;5.954;2023-01-29T04:13:47;102520.50;;;-0.12;99.42
67931;BME280;63902;52.000;5.954;2023-01-29T04:14:49;102523.09;;;-0.12;99.51
67931;BME280;63902;52.000;5.954;2023-01-29T04:15:55;102519.63;;;-0.12;99.65
67931;BME280;63902;52.000;5.954;2023-01-29T04:16:59;102523.00;;;-0.15;99.58
67931;BME280;63902;52.000;5.954;2023-01-29T04:18:02;102520.56;;;-0.10;99.48
67931;BME280;63902;52.000;5.954;2023-01-29T04:19:04;102505.63;;;-0.14;99.05
67931;BME280;63902;52.000;5.954;2023-01-29T04:20:06;102502.22;;;-0.13;99.39
67931;BME280;63902;52.000;5.954;2023-01-29T04:21:06;102497.09;;;-0.10;99.66
67931;BME280;63902;52.000;5.954;2023-01-29T04:22:11;102502.31;;;-0.10;99.76
67931;BME280;63902;52.000;5.954;2023-01-29T04:23:23;102503.97;;;-0.12;99.58
67931;BME280;63902;52.000;5.954;2023-01-29T04:24:24;102490.84;;;-0.15;99.43
67931;BME280;63902;52.000;5.954;2023-01-29T04:25:27;102493.53;;;-0.12;99.38
67931;BME280;63902;52.000;5.954;2023-01-29T04:26:42;102484.75;;;-0.16;99.15
67931;BME280;63902;52.000;5.954;2023-01-29T04:27:54;102483.09;;;-0.12;99.40
67931;BME280;63902;52.000;5.954;2023-01-29T04:30:28;102478.75;;;-0.13;99.77
67931;BME280;63902;52.000;5.954;2023-01-29T04:31:38;102476.13;;;-0.13;99.68
67931;BME280;63902;52.000;5.954;2023-01-29T04:32:53;102473.56;;;-0.12;99.60
67931;BME280;63902;52.000;5.954;2023-01-29T04:34:08;102475.28;;;-0.12;99.20
67931;BME280;63902;52.000;5.954;2023-01-29T04:35:23;102469.19;;;-0.13;99.33
67931;BME280;63902;52.000;5.954;2023-01-29T04:36:33;102470.94;;;-0.12;99.48
67931;BME280;63902;52.000;5.954;2023-01-29T04:37:40;102463.91;;;-0.14;99.18
67931;BME280;63902;52.000;5.954;2023-01-29T04:38:49;102471.00;;;-0.10;99.24
67931;BME280;63902;52.000;5.954;2023-01-29T04:39:57;102478.81;;;-0.10;99.19
67931;BME280;63902;52.000;5.954;2023-01-29T04:41:04;102469.03;;;-0.17;99.30
67931;BME280;63902;52.000;5.954;2023-01-29T04:42:12;102479.72;;;-0.10;99.23
67931;BME280;63902;52.000;5.954;2023-01-29T04:43:20;102476.25;;;-0.09;99.12
67931;BME280;63902;52.000;5.954;2023-01-29T04:44:32;102473.53;;;-0.13;99.12
67931;BME280;63902;52.000;5.954;2023-01-29T04:45:44;102485.81;;;-0.09;99.15
67931;BME280;63902;52.000;5.954;2023-01-29T04:46:53;102480.59;;;-0.09;99.13
67931;BME280;63902;52.000;5.954;2023-01-29T04:48:01;102484.06;;;-0.09;99.12
67931;BME280;63902;52.000;5.954;2023-01-29T04:49:15;102478.75;;;-0.12;99.11
67931;BME280;63902;52.000;5.954;2023-01-29T04:50:24;102469.34;;;-0.08;99.02
67931;BME280;63902;52.000;5.954;2023-01-29T04:51:34;102477.16;;;-0.08;99.59
67931;BME280;63902;52.000;5.954;2023-01-29T04:52:44;102471.81;;;-0.11;99.08
67931;BME280;63902;52.000;5.954;2023-01-29T04:53:52;102475.38;;;-0.09;99.20
67931;BME280;63902;52.000;5.954;2023-01-29T04:55:01;102478.03;;;-0.08;99.03
67931;BME280;63902;52.000;5.954;2023-01-29T04:56:07;102465.88;;;-0.07;99.30
67931;BME280;63902;52.000;5.954;2023-01-29T04:57:15;102469.34;;;-0.08;99.27
67931;BME280;63902;52.000;5.954;2023-01-29T04:58:24;102465.88;;;-0.07;99.18
67931;BME280;63902;52.000;5.954;2023-01-29T04:59:29;102463.28;;;-0.06;99.09
67931;BME280;63902;52.000;5.954;2023-01-29T05:00:32;102458.84;;;-0.10;99.24
67931;BME280;63902;52.000;5.954;2023-01-29T05:01:36;102459.78;;;-0.08;99.04
67931;BME280;63902;52.000;5.954;2023-01-29T05:02:40;102452.75;;;-0.10;99.25
67931;BME280;63902;52.000;5.954;2023-01-29T05:03:45;102461.38;;;-0.11;99.09
67931;BME280;63902;52.000;5.954;2023-01-29T05:04:49;102462.38;;;-0.08;99.27
67931;BME280;63902;52.000;5.954;2023-01-29T05:05:53;102463.28;;;-0.06;99.29
67931;BME280;63902;52.000;5.954;2023-01-29T05:06:55;102458.94;;;-0.07;99.08
67931;BME280;63902;52.000;5.954;2023-01-29T05:07:57;102466.75;;;-0.07;99.27
67931;BME280;63902;52.000;5.954;2023-01-29T05:08:59;102461.53;;;-0.07;98.93
67931;BME280;63902;52.000;5.954;2023-01-29T05:10:02;102449.13;;;-0.15;99.16
67931;BME280;63902;52.000;5.954;2023-01-29T05:11:04;102459.78;;;-0.08;99.36
67931;BME280;63902;52.000;5.954;2023-01-29T05:12:06;102463.25;;;-0.07;99.20
67931;BME280;63902;52.000;5.954;2023-01-29T05:13:12;102452.75;;;-0.10;99.19
67931;BME280;63902;52.000;5.954;2023-01-29T05:14:14;102461.50;;;-0.08;99.01
67931;BME280;63902;52.000;5.954;2023-01-29T05:15:23;102461.53;;;-0.07;99.39
67931;BME280;63902;52.000;5.954;2023-01-29T05:16:27;102452.84;;;-0.07;98.95
67931;BME280;63902;52.000;5.954;2023-01-29T05:17:29;102454.59;;;-0.06;98.98
67931;BME280;63902;52.000;5.954;2023-01-29T05:18:29;102448.50;;;-0.07;99.09
67931;BME280;63902;52.000;5.954;2023-01-29T05:19:31;102443.28;;;-0.07;99.03
67931;BME280;63902;52.000;5.954;2023-01-29T05:20:34;102447.63;;;-0.07;99.15
67931;BME280;63902;52.000;5.954;2023-01-29T05:21:35;102445.00;;;-0.07;99.24
67931;BME280;63902;52.000;5.954;2023-01-29T05:22:37;102434.34;;;-0.15;99.46
67931;BME280;63902;52.000;5.954;2023-01-29T05:23:38;102451.97;;;-0.06;99.01
67931;BME280;63902;52.000;5.954;2023-01-29T05:24:39;102445.88;;;-0.07;99.09
67931;BME280;63902;52.000;5.954;2023-01-29T05:25:39;102448.47;;;-0.08;99.53
67931;BME280;63902;52.000;5.954;2023-01-29T05:26:41;102455.44;;;-0.07;99.24
67931;BME280;63902;52.000;5.954;2023-01-29T05:27:41;102456.28;;;-0.08;99.41
67931;BME280;63902;52.000;5.954;2023-01-29T05:28:42;102458.94;;;-0.07;99.36
67931;BME280;63902;52.000;5.954;2023-01-29T05:29:45;102458.06;;;-0.07;99.30
67931;BME280;63902;52.000;5.954;2023-01-29T05:30:47;102451.94;;;-0.08;99.47
67931;BME280;63902;52.000;5.954;2023-01-29T05:31:48;102453.72;;;-0.07;99.25
67931;BME280;63902;52.000;5.954;2023-01-29T05:32:48;102452.78;;;-0.09;99.22
67931;BME280;63902;52.000;5.954;2023-01-29T05:33:49;102452.84;;;-0.07;99.49
67931;BME280;63902;52.000;5.954;2023-01-29T05:34:49;102454.50;;;-0.09;99.46
67931;BME280;63902;52.000;5.954;2023-01-29T05:35:51;102455.34;;;-0.10;99.19
67931;BME280;63902;52.000;5.954;2023-01-29T05:36:52;102457.97;;;-0.10;99.37
67931;BME280;63902;52.000;5.954;2023-01-29T05:37:53;102463.22;;;-0.09;99.40
67931;BME280;63902;52.000;5.954;2023-01-29T05:38:54;102471.94;;;-0.08;99.48
67931;BME280;63902;52.000;5.954;2023-01-29T05:39:54;102458.00;;;-0.09;99.23
67931;BME280;63902;52.000;5.954;2023-01-29T05:40:57;102464.13;;;-0.08;99.09